Naples, Italy

4:54 PM CEST on July 29, 2016 (GMT +0200)
Napoli | | Change Station

Elev 564 ft 40.85 °N, 14.23 °E | Updated 4 minutes ago

Partly Cloudy
Partly Cloudy
81.0 °F
Feels Like 82 °F
N
10.0
Wind Variable Wind from West
Gusts 15.0 mph

Today
High -- | Low -- °F
--% Chance of Precip.
Yesterday
High -- | Low -- °F
Precip. -- in
Pressure 29.98 in
Visibility 6.2 miles
Clouds Few 4000 ft
Heat Index 82 °F
Dew Point 63 °F
Humidity 55%
Rainfall in
Snow Depth Not available.
5:56 AM 8:21 PM
Waning Crescent, 21% visible
METAR LIRN 291420Z 27010KT 9999 FEW040 31/16 Q1015 NOSIG
Pressure 29.98 in
Visibility 6.2 miles
Clouds Few 4000 ft
Heat Index 82 °F
Dew Point 63 °F
Humidity 55%
Rainfall in
Snow Depth Not available.
5:56 AM 8:21 PM
Waning Crescent, 21% visible
METAR LIRN 291420Z 27010KT 9999 FEW040 31/16 Q1015 NOSIG

10-Day Weather Forecast

×

Almanac

Astronomy

Jul. 29, 2016 Rise Set
Actual Time
Civil Twilight
Nautical Twilight
Astronomical Twilight
Moon
Length of Visible Light
Length of Day
Tomorrow will be .
, % of the Moon is Illuminated

Today's Extremes

Country Highs Country Lows

Community

WunderPhotos

Upload Photos

1,928,343 photos uploaded!

WunderBlog® & News

Nearby

Air Quality

  Air Quality AQ Index Pollutant
Not available.

Snow Depth

Station Depth Elevation

Earthquake Activity

City Distance Mag. Time & Date
Minimum magnitude displayed is 2.5.

Coastal Water Temperatures

Place Temperature

Stations

Nearby Weather Stations

Station Location Temp. Windchill Dew Point Humidity Wind Precip. Elev Updated Type